Time;durP1;ratioP1;P1;durP2;ratioP2;P2;SDS_P1;SDS_P2;PMS_P1;PMS_P2;Temp;Humidity;BMP_temperature;BMP_pressure;BME280_temperature;BME280_humidity;BME280_pressure;Samples;Min_cycle;Max_cycle;Signal;HPM_P1;HPM_P2
2023/01/04 00:01:45;;;;;;;21.40;19.17;;;0.70;99.90;;;;;;4971695;28;20185;-76
2023/01/04 00:04:11;;;;;;;20.97;19.07;;;0.60;99.90;;;;;;4971908;28;20213;-76
2023/01/04 00:06:37;;;;;;;22.43;19.13;;;0.60;99.90;;;;;;4975722;28;20184;-76
2023/01/04 00:09:03;;;;;;;19.10;16.40;;;0.60;99.90;;;;;;4990583;28;20212;-76
2023/01/04 00:11:28;;;;;;;18.67;17.03;;;0.70;99.90;;;;;;4991033;28;20243;-76
2023/01/04 00:13:58;;;;;;;20.77;18.80;;;0.60;99.90;;;;;;4991300;28;20212;-76
2023/01/04 00:16:25;;;;;;;20.67;18.97;;;0.60;99.90;;;;;;4990397;28;20194;-76
2023/01/04 00:18:53;;;;;;;22.97;21.03;;;0.60;99.90;;;;;;4990496;28;20180;-76
2023/01/04 00:21:29;;;;;;;21.50;19.70;;;0.50;99.90;;;;;;4981827;28;20658;-75
2023/01/04 00:23:58;;;;;;;17.77;16.17;;;0.50;99.90;;;;;;4972485;28;20235;-76
2023/01/04 00:26:29;;;;;;;16.07;14.57;;;0.50;99.90;;;;;;4971658;28;20192;-76
2023/01/04 00:28:57;;;;;;;17.17;15.57;;;0.40;99.90;;;;;;4970712;28;20221;-76
2023/01/04 00:31:23;;;;;;;16.57;14.87;;;0.30;99.90;;;;;;4971214;28;20197;-76
2023/01/04 00:33:54;;;;;;;17.33;15.60;;;0.30;99.90;;;;;;4971093;28;20255;-77
2023/01/04 00:36:21;;;;;;;20.87;18.87;;;0.30;99.90;;;;;;4976172;28;20526;-77
2023/01/04 00:38:47;;;;;;;28.90;26.17;;;0.40;99.90;;;;;;4992263;28;20191;-76
2023/01/04 00:41:13;;;;;;;32.70;30.10;;;0.40;99.90;;;;;;4991740;28;20653;-76
2023/01/04 00:43:39;;;;;;;48.73;45.47;;;0.30;99.90;;;;;;4993168;28;20215;-76
2023/01/04 00:46:10;;;;;;;28.73;26.73;;;0.30;99.90;;;;;;4993410;28;20192;-75
2023/01/04 00:48:36;;;;;;;17.97;16.37;;;0.20;99.90;;;;;;4990556;28;20583;-76
2023/01/04 00:51:01;;;;;;;16.73;15.27;;;0.10;99.90;;;;;;4983379;28;20192;-76
2023/01/04 00:53:27;;;;;;;17.93;16.23;;;0.00;99.90;;;;;;4988328;28;20185;-76
2023/01/04 00:55:59;;;;;;;18.33;16.47;;;0.00;99.90;;;;;;4974186;28;20184;-76
2023/01/04 00:58:25;;;;;;;44.23;41.23;;;0.00;99.90;;;;;;4973440;28;20230;-75
2023/01/04 01:00:50;;;;;;;43.67;40.10;;;0.00;99.90;;;;;;4973295;28;20185;-76
2023/01/04 01:03:16;;;;;;;41.83;38.90;;;0.00;99.90;;;;;;4980443;28;20295;-75
2023/01/04 01:05:42;;;;;;;40.77;37.97;;;0.00;99.90;;;;;;4994162;28;20195;-75
2023/01/04 01:08:25;;;;;;;40.00;37.17;;;0.00;99.90;;;;;;4992887;28;20246;-76
2023/01/04 01:10:52;;;;;;;53.33;49.93;;;0.00;99.90;;;;;;4993790;28;20183;-75
2023/01/04 01:13:20;;;;;;;58.20;54.40;;;0.00;99.90;;;;;;4992632;28;20731;-75
2023/01/04 01:15:46;;;;;;;53.47;50.00;;;0.00;99.90;;;;;;4992795;28;20184;-74
2023/01/04 01:18:12;;;;;;;45.30;42.20;;;0.00;99.90;;;;;;4978034;28;20192;-74
2023/01/04 01:20:43;;;;;;;41.03;38.37;;;-0.10;99.90;;;;;;4973031;28;20189;-75
2023/01/04 01:23:13;;;;;;;36.50;33.93;;;-0.10;99.90;;;;;;4973351;28;20244;-75
2023/01/04 01:25:40;;;;;;;30.03;27.83;;;-0.10;99.90;;;;;;4974354;28;20216;-75
2023/01/04 01:28:07;;;;;;;21.07;18.87;;;-0.10;99.90;;;;;;4973494;28;20205;-75
2023/01/04 01:30:33;;;;;;;16.73;14.83;;;0.00;99.90;;;;;;4972752;28;20660;-75
2023/01/04 01:32:59;;;;;;;22.97;21.10;;;0.00;99.90;;;;;;4973483;28;20185;-75
2023/01/04 01:35:25;;;;;;;29.40;27.30;;;0.00;99.90;;;;;;4972967;28;20301;-74
2023/01/04 01:37:51;;;;;;;34.70;32.03;;;-0.10;99.90;;;;;;4973470;28;20192;-75
2023/01/04 01:40:17;;;;;;;26.63;24.30;;;0.10;99.90;;;;;;4972807;28;20195;-74
2023/01/04 01:42:42;;;;;;;20.37;18.70;;;0.00;99.90;;;;;;4974130;28;20184;-75
2023/01/04 01:45:21;;;;;;;19.60;17.93;;;-0.10;99.90;;;;;;4975377;28;20197;-75
2023/01/04 01:47:49;;;;;;;20.50;18.33;;;-0.10;99.90;;;;;;4972384;28;20208;-75
2023/01/04 01:50:26;;;;;;;16.83;15.23;;;-0.20;99.90;;;;;;4974418;28;20181;-75
2023/01/04 01:52:55;;;;;;;15.40;14.00;;;-0.20;99.90;;;;;;4974917;28;20192;-75
2023/01/04 01:55:22;;;;;;;18.17;16.57;;;-0.20;99.90;;;;;;4973798;28;20628;-75
2023/01/04 01:57:50;;;;;;;21.67;19.97;;;-0.20;99.90;;;;;;4973159;28;20192;-75
2023/01/04 02:00:17;;;;;;;23.60;21.47;;;-0.30;99.90;;;;;;4987264;28;20187;-75
2023/01/04 02:02:56;;;;;;;21.13;19.53;;;-0.40;99.90;;;;;;4973986;28;20187;-75
2023/01/04 02:05:23;;;;;;;18.47;16.87;;;-0.40;99.90;;;;;;4973282;28;20209;-75
2023/01/04 02:07:49;;;;;;;15.33;13.83;;;-0.50;99.90;;;;;;4972636;28;20247;-75
2023/01/04 02:10:16;;;;;;;16.53;14.83;;;-0.50;99.90;;;;;;4972994;28;20189;-75
2023/01/04 02:12:44;;;;;;;15.27;13.67;;;-0.50;99.90;;;;;;4974486;28;20220;-76
2023/01/04 02:15:10;;;;;;;13.77;12.57;;;-0.50;99.90;;;;;;4991374;28;20212;-75
2023/01/04 02:17:47;;;;;;;16.27;14.77;;;-0.50;99.90;;;;;;4990990;28;20711;-76
2023/01/04 02:20:22;;;;;;;16.30;14.77;;;-0.50;99.90;;;;;;4992549;28;20183;-75
2023/01/04 02:23:12;;;;;;;14.70;13.40;;;-0.40;99.90;;;;;;4992797;28;20237;-75
2023/01/04 02:26:09;;;;;;;15.13;13.63;;;-0.40;99.90;;;;;;4992576;28;20201;-75
2023/01/04 02:28:41;;;;;;;18.57;16.77;;;-0.50;99.90;;;;;;4975592;28;20218;-77
2023/01/04 02:31:20;;;;;;;17.87;16.20;;;-0.50;99.90;;;;;;4973278;28;20181;-76
2023/01/04 02:34:10;;;;;;;23.03;16.40;;;-0.40;99.90;;;;;;4973396;28;20238;-76
2023/01/04 02:36:59;;;;;;;17.37;15.60;;;-0.40;99.90;;;;;;4971610;28;20215;-76
2023/01/04 02:39:42;;;;;;;17.57;15.87;;;-0.40;99.90;;;;;;4972660;28;20199;-75
2023/01/04 02:42:15;;;;;;;18.33;16.40;;;-0.40;99.90;;;;;;4983189;28;20669;-75
2023/01/04 02:44:53;;;;;;;16.23;13.87;;;-0.40;99.90;;;;;;4990850;28;20282;-75
2023/01/04 02:50:32;;;;;;;16.80;14.53;;;-0.50;99.90;;;;;;4991928;28;20192;-75
2023/01/04 02:52:58;;;;;;;15.67;13.97;;;-0.60;99.90;;;;;;4992478;28;20187;-75
2023/01/04 02:55:31;;;;;;;17.97;14.50;;;-0.50;99.90;;;;;;4986037;28;20231;-75
2023/01/04 02:58:12;;;;;;;16.30;14.73;;;-0.40;99.90;;;;;;4971910;28;20653;-75
2023/01/04 03:07:35;;;;;;;17.10;15.53;;;-0.20;99.90;;;;;;4971867;28;20346;-75
2023/01/04 03:10:18;;;;;;;16.30;14.70;;;-0.10;99.90;;;;;;4973686;28;20184;-76
2023/01/04 03:12:51;;;;;;;14.47;12.00;;;-0.10;99.90;;;;;;4972582;28;20181;-75
2023/01/04 03:15:25;;;;;;;17.00;15.40;;;-0.20;99.90;;;;;;4971843;28;20216;-76
2023/01/04 03:18:20;;;;;;;14.47;13.07;;;-0.20;99.90;;;;;;4971352;28;20191;-75
2023/01/04 03:20:48;;;;;;;19.00;17.20;;;-0.20;99.90;;;;;;4970737;28;20251;-75
2023/01/04 03:37:40;;;;;;;14.20;12.83;;;-0.30;99.90;;;;;;4980817;28;20188;-75
2023/01/04 03:49:21;;;;;;;22.23;20.40;;;-0.50;99.90;;;;;;4992479;28;20223;-76
2023/01/04 03:51:49;;;;;;;21.53;19.77;;;-0.50;99.90;;;;;;4976778;28;20185;-75
2023/01/04 03:54:28;;;;;;;23.83;21.73;;;-0.60;99.90;;;;;;4970297;28;20208;-75
2023/01/04 03:56:55;;;;;;;20.80;18.90;;;-0.60;99.90;;;;;;4969883;28;20189;-75
2023/01/04 03:59:22;;;;;;;14.43;13.03;;;-0.60;99.90;;;;;;4971834;28;20278;-75
2023/01/04 04:01:48;;;;;;;15.13;13.53;;;-0.60;99.90;;;;;;4971877;28;20788;-75
2023/01/04 04:09:43;;;;;;;14.27;12.87;;;-0.40;99.90;;;;;;4952378;29;20184;-76
2023/01/04 04:12:09;;;;;;;15.40;12.83;;;-0.50;99.90;;;;;;4952796;28;20173;-76
2023/01/04 04:14:35;;;;;;;14.03;12.73;;;-0.50;99.90;;;;;;4952387;28;20221;-75
2023/01/04 04:17:00;;;;;;;16.53;12.43;;;-0.60;99.90;;;;;;4956172;28;20190;-75
2023/01/04 04:19:26;;;;;;;14.00;12.60;;;-0.60;99.90;;;;;;4994163;28;20269;-75
2023/01/04 04:21:52;;;;;;;14.63;13.33;;;-0.70;99.90;;;;;;4993849;28;20683;-75
2023/01/04 04:24:23;;;;;;;28.27;26.07;;;-0.80;99.90;;;;;;4994794;28;20705;-75
2023/01/04 04:26:53;;;;;;;33.00;30.80;;;-0.80;99.90;;;;;;4993029;28;20187;-75
2023/01/04 04:29:19;;;;;;;20.33;18.83;;;-0.90;99.90;;;;;;4994404;28;20216;-75
2023/01/04 04:31:45;;;;;;;12.73;11.43;;;-0.90;99.90;;;;;;4993346;28;20215;-76
2023/01/04 04:34:11;;;;;;;13.43;12.03;;;-0.80;99.90;;;;;;4992481;28;20333;-75
2023/01/04 04:36:37;;;;;;;13.70;12.40;;;-0.80;99.90;;;;;;4976627;28;20181;-75
2023/01/04 04:39:03;;;;;;;15.83;14.17;;;-0.80;99.90;;;;;;4974635;28;20545;-76
2023/01/04 04:41:38;;;;;;;16.20;14.73;;;-0.80;99.90;;;;;;4973746;28;20191;-75
2023/01/04 04:44:05;;;;;;;15.30;13.87;;;-0.70;99.90;;;;;;4975228;28;20621;-75
2023/01/04 04:46:31;;;;;;;15.17;13.73;;;-0.60;99.90;;;;;;4976861;28;20185;-75
2023/01/04 04:48:57;;;;;;;13.83;12.63;;;-0.60;99.90;;;;;;4993423;28;20563;-76
2023/01/04 04:51:23;;;;;;;17.27;13.67;;;-0.50;99.90;;;;;;4994209;28;20648;-76
2023/01/04 04:53:49;;;;;;;16.67;14.97;;;-0.50;99.90;;;;;;5004130;28;20242;-75
2023/01/04 04:56:15;;;;;;;14.77;13.23;;;-0.40;99.90;;;;;;5007918;28;20575;-75
2023/01/04 04:58:41;;;;;;;13.50;12.20;;;-0.40;99.90;;;;;;4993542;28;20188;-76
2023/01/04 05:01:07;;;;;;;14.73;13.27;;;-0.40;99.90;;;;;;4986763;28;20199;-75
2023/01/04 05:03:34;;;;;;;14.83;12.93;;;-0.40;99.90;;;;;;4973808;28;20181;-76
2023/01/04 05:05:59;;;;;;;16.70;15.00;;;-0.40;99.90;;;;;;4964841;28;20216;-74
2023/01/04 05:08:25;;;;;;;21.03;18.87;;;-0.40;99.90;;;;;;4956599;28;20269;-74
2023/01/04 05:10:52;;;;;;;27.83;25.07;;;-0.40;99.90;;;;;;4954883;28;20181;-76
2023/01/04 05:13:18;;;;;;;32.23;29.80;;;-0.40;99.90;;;;;;4955265;29;20182;-75
2023/01/04 05:15:46;;;;;;;30.53;28.33;;;-0.40;99.90;;;;;;5001059;22;20228;-78
2023/01/04 05:18:14;;;;;;;27.07;25.13;;;-0.40;99.90;;;;;;4996144;28;20211;-78
2023/01/04 05:20:40;;;;;;;33.13;30.80;;;-0.40;99.90;;;;;;4993858;28;20176;-77
2023/01/04 05:23:07;;;;;;;22.83;21.17;;;-0.30;99.90;;;;;;4992564;28;20195;-76
2023/01/04 05:25:33;;;;;;;20.20;18.70;;;-0.20;99.90;;;;;;4988078;28;20227;-77
2023/01/04 05:27:59;;;;;;;19.20;17.27;;;-0.20;99.90;;;;;;4980198;28;20224;-77
2023/01/04 05:33:11;;;;;;;16.13;14.63;;;-0.10;99.90;;;;;;4995318;28;20184;-77
2023/01/04 05:35:36;;;;;;;15.97;14.47;;;-0.10;99.90;;;;;;4994655;28;20247;-78
2023/01/04 05:38:02;;;;;;;18.60;16.70;;;-0.10;99.90;;;;;;4994708;28;20226;-77
2023/01/04 05:40:29;;;;;;;20.97;19.27;;;0.00;99.90;;;;;;4993226;28;20176;-77
2023/01/04 05:42:56;;;;;;;26.03;23.73;;;0.00;99.90;;;;;;4987362;28;20818;-76
2023/01/04 05:45:22;;;;;;;30.00;27.80;;;0.00;99.90;;;;;;4993689;28;20184;-76
2023/01/04 05:47:52;;;;;;;43.50;39.93;;;0.10;99.90;;;;;;4992835;28;20215;-77
2023/01/04 05:50:20;;;;;;;35.40;33.00;;;0.10;99.90;;;;;;4997714;28;20221;-76
2023/01/04 05:52:46;;;;;;;36.00;33.40;;;0.10;99.90;;;;;;5003215;28;20188;-76
2023/01/04 05:55:13;;;;;;;39.90;37.07;;;0.20;99.90;;;;;;5000842;28;20203;-77
2023/01/04 05:57:38;;;;;;;33.43;30.80;;;0.20;99.90;;;;;;4991667;28;20183;-78
2023/01/04 06:00:07;;;;;;;40.57;37.13;;;0.30;99.90;;;;;;4979920;28;20184;-77
2023/01/04 06:02:33;;;;;;;40.33;37.23;;;0.30;99.90;;;;;;4975011;28;20180;-77
2023/01/04 06:04:59;;;;;;;35.87;32.73;;;0.40;99.90;;;;;;4976496;28;20192;-76
2023/01/04 06:07:26;;;;;;;36.47;33.77;;;0.50;99.90;;;;;;4979674;28;20216;-77
2023/01/04 06:09:51;;;;;;;38.90;36.23;;;0.50;99.90;;;;;;4988798;28;20189;-76
2023/01/04 06:12:17;;;;;;;37.43;34.47;;;0.60;99.90;;;;;;4992536;28;20176;-77
2023/01/04 06:14:43;;;;;;;33.10;30.60;;;0.70;99.90;;;;;;4992407;28;20212;-77
2023/01/04 06:17:09;;;;;;;28.23;26.00;;;0.80;99.90;;;;;;4992209;28;20211;-77
2023/01/04 06:19:35;;;;;;;16.47;13.90;;;0.80;99.90;;;;;;4991499;28;20561;-77
2023/01/04 06:22:01;;;;;;;13.47;12.07;;;0.80;99.90;;;;;;4990869;28;20602;-77
2023/01/04 06:24:27;;;;;;;16.17;14.57;;;0.80;99.90;;;;;;4988499;28;20264;-77
2023/01/04 06:26:53;;;;;;;15.87;13.97;;;0.90;99.90;;;;;;4990155;28;20288;-77
2023/01/04 06:29:19;;;;;;;16.17;14.53;;;0.90;99.90;;;;;;4991370;28;20639;-78
2023/01/04 06:31:45;;;;;;;16.27;14.70;;;0.90;99.90;;;;;;5004853;28;20184;-76
2023/01/04 06:34:12;;;;;;;16.27;14.13;;;1.00;99.90;;;;;;5006726;28;20180;-77
2023/01/04 06:36:39;;;;;;;13.43;12.10;;;1.00;99.90;;;;;;4990966;28;20203;-77
2023/01/04 06:39:06;;;;;;;15.10;13.60;;;1.00;99.90;;;;;;4991272;28;20264;-77
2023/01/04 06:41:33;;;;;;;14.73;13.30;;;1.10;99.90;;;;;;4990795;28;20698;-78
2023/01/04 06:43:59;;;;;;;18.30;13.53;;;1.00;99.90;;;;;;4991855;28;20180;-77
2023/01/04 06:46:25;;;;;;;14.43;13.03;;;1.10;99.90;;;;;;4992539;28;20208;-79
2023/01/04 06:48:52;;;;;;;15.23;13.73;;;1.10;99.90;;;;;;4989871;28;20307;-77
2023/01/04 06:51:19;;;;;;;15.20;13.77;;;1.10;99.90;;;;;;4985533;28;20623;-76
2023/01/04 06:53:45;;;;;;;14.30;12.80;;;1.20;99.90;;;;;;4990908;28;20252;-77
2023/01/04 06:56:11;;;;;;;23.53;21.67;;;1.20;99.90;;;;;;4991064;28;20299;-77
2023/01/04 06:58:37;;;;;;;68.70;64.37;;;1.20;99.90;;;;;;4989874;28;20934;-77
2023/01/04 07:01:03;;;;;;;56.23;52.70;;;1.20;99.90;;;;;;4989341;28;20573;-77
2023/01/04 07:03:29;;;;;;;68.27;63.87;;;1.20;99.90;;;;;;4985150;28;20224;-77
2023/01/04 07:05:54;;;;;;;42.13;39.00;;;1.30;99.90;;;;;;4989409;28;20246;-77
2023/01/04 07:08:20;;;;;;;29.67;27.57;;;1.30;99.90;;;;;;4990419;28;20699;-78
2023/01/04 07:10:46;;;;;;;41.30;38.33;;;1.40;99.90;;;;;;4990886;28;20289;-77
2023/01/04 07:13:13;;;;;;;47.43;44.03;;;1.40;99.90;;;;;;4999034;28;20191;-76
2023/01/04 07:15:39;;;;;;;43.60;40.53;;;1.40;99.90;;;;;;5016452;28;20215;-78
2023/01/04 07:18:06;;;;;;;49.27;46.00;;;1.50;99.90;;;;;;4990153;28;20232;-77
2023/01/04 07:20:32;;;;;;;47.13;43.60;;;1.50;99.90;;;;;;4991244;28;20194;-77
2023/01/04 07:22:57;;;;;;;30.97;28.53;;;1.60;99.90;;;;;;4991817;28;20188;-78
2023/01/04 07:25:23;;;;;;;22.97;20.97;;;1.60;99.90;;;;;;4993783;28;20593;-77
2023/01/04 07:27:53;;;;;;;19.53;17.03;;;1.60;99.90;;;;;;4998762;28;20208;-77
2023/01/04 07:30:22;;;;;;;14.87;13.37;;;1.70;99.90;;;;;;5000524;28;20524;-77
2023/01/04 07:32:50;;;;;;;14.90;13.40;;;1.70;99.90;;;;;;4978138;28;20182;-77
2023/01/04 07:35:16;;;;;;;24.10;21.60;;;1.70;99.90;;;;;;4971709;28;20740;-77
2023/01/04 07:37:42;;;;;;;23.47;21.17;;;1.80;99.90;;;;;;4971942;28;20264;-77
2023/01/04 07:40:09;;;;;;;16.43;14.63;;;1.80;99.90;;;;;;4993303;28;20199;-77
2023/01/04 07:42:35;;;;;;;19.63;17.83;;;1.80;99.90;;;;;;4998640;28;20336;-76
2023/01/04 07:45:02;;;;;;;18.13;15.50;;;1.80;99.90;;;;;;4998301;28;20568;-78
2023/01/04 07:47:28;;;;;;;28.27;25.87;;;1.80;99.90;;;;;;4991020;28;20215;-78
2023/01/04 07:49:54;;;;;;;24.07;21.87;;;1.70;99.90;;;;;;4981185;28;20200;-72
2023/01/04 07:52:19;;;;;;;20.00;18.20;;;1.70;99.90;;;;;;4980050;28;20189;-72
2023/01/04 07:54:45;;;;;;;19.20;17.17;;;1.70;99.90;;;;;;4970714;28;20187;-72
2023/01/04 07:57:11;;;;;;;22.67;20.87;;;1.80;99.90;;;;;;4969158;28;20207;-72
2023/01/04 07:59:37;;;;;;;24.17;21.80;;;1.80;99.90;;;;;;4984419;28;20183;-72
2023/01/04 08:02:03;;;;;;;20.40;18.40;;;1.90;99.90;;;;;;4990817;28;20187;-72
2023/01/04 08:04:29;;;;;;;32.17;29.77;;;1.90;99.90;;;;;;4989507;28;20553;-73
2023/01/04 08:06:54;;;;;;;17.10;15.60;;;1.90;99.90;;;;;;4989902;28;20588;-74
2023/01/04 08:09:20;;;;;;;32.10;29.63;;;1.90;99.90;;;;;;4989837;28;20216;-74
2023/01/04 08:11:46;;;;;;;33.23;30.53;;;1.90;99.90;;;;;;4989697;28;20311;-74
2023/01/04 08:14:12;;;;;;;32.23;29.90;;;1.90;99.90;;;;;;4990774;28;20226;-74
2023/01/04 08:16:40;;;;;;;21.57;19.57;;;2.00;99.90;;;;;;4990659;28;20219;-73
2023/01/04 08:19:12;;;;;;;27.13;25.03;;;2.00;99.90;;;;;;4989663;28;20207;-73
2023/01/04 08:21:38;;;;;;;29.67;27.43;;;2.10;99.90;;;;;;4980463;28;20275;-73
2023/01/04 08:24:04;;;;;;;23.43;21.27;;;2.10;99.90;;;;;;4974494;28;20192;-74
2023/01/04 08:26:31;;;;;;;24.63;22.63;;;2.10;99.90;;;;;;4986170;28;20296;-73
2023/01/04 08:28:57;;;;;;;25.53;23.13;;;2.10;99.90;;;;;;4995544;28;20208;-72
2023/01/04 08:31:26;;;;;;;28.20;25.73;;;2.20;99.90;;;;;;4989090;28;20180;-71
2023/01/04 08:33:53;;;;;;;23.77;21.40;;;2.10;99.90;;;;;;4989935;28;20231;-72
2023/01/04 08:36:19;;;;;;;29.37;27.07;;;2.10;99.90;;;;;;4989074;28;20553;-72
2023/01/04 08:38:50;;;;;;;146.03;137.83;;;2.20;99.90;;;;;;4989449;28;20350;-72
2023/01/04 08:41:16;;;;;;;151.23;142.63;;;2.20;99.90;;;;;;4967953;28;20345;-71
2023/01/04 08:43:42;;;;;;;93.03;87.60;;;2.20;99.90;;;;;;4969067;28;20224;-71
2023/01/04 08:46:09;;;;;;;62.03;57.97;;;2.20;99.90;;;;;;4970071;28;20201;-71
2023/01/04 08:48:35;;;;;;;81.30;76.50;;;2.30;99.90;;;;;;4988782;28;20299;-72
2023/01/04 08:51:05;;;;;;;91.03;84.73;;;2.40;99.90;;;;;;4977439;28;20332;-73
2023/01/04 08:53:31;;;;;;;105.60;99.53;;;2.50;99.90;;;;;;4981555;28;20211;-73
2023/01/04 08:55:59;;;;;;;53.57;49.73;;;2.60;99.90;;;;;;4980530;28;20678;-74
2023/01/04 08:58:26;;;;;;;87.63;82.47;;;2.60;99.90;;;;;;4978209;28;20192;-72
2023/01/04 09:00:51;;;;;;;111.67;105.13;;;2.70;99.90;;;;;;4980837;28;20180;-72
2023/01/04 09:03:17;;;;;;;99.83;94.03;;;2.70;99.90;;;;;;4992009;28;20188;-73
2023/01/04 09:05:43;;;;;;;52.23;48.47;;;2.70;99.90;;;;;;4990460;28;20782;-74
2023/01/04 09:08:10;;;;;;;45.33;41.67;;;2.80;99.90;;;;;;4971948;28;20229;-72
2023/01/04 09:10:37;;;;;;;24.47;22.47;;;2.90;99.90;;;;;;4988682;28;20282;-74
2023/01/04 09:13:03;;;;;;;25.70;23.53;;;3.00;99.90;;;;;;4993072;28;20669;-73
2023/01/04 09:15:30;;;;;;;27.80;25.33;;;3.10;99.90;;;;;;4992401;28;20188;-72
2023/01/04 09:17:55;;;;;;;29.73;27.43;;;3.20;99.90;;;;;;4991678;28;20648;-74
2023/01/04 09:20:21;;;;;;;23.97;21.40;;;3.40;99.90;;;;;;4992739;28;20198;-72
2023/01/04 09:22:47;;;;;;;15.73;13.60;;;3.40;99.90;;;;;;4993653;28;20185;-72
2023/01/04 09:25:13;;;;;;;16.00;14.40;;;3.40;99.90;;;;;;4993553;28;20553;-71
2023/01/04 09:27:38;;;;;;;18.40;14.60;;;3.40;99.90;;;;;;4991667;28;20204;-72
2023/01/04 09:30:05;;;;;;;18.50;15.90;;;3.40;99.90;;;;;;4992787;28;20183;-73
2023/01/04 09:32:31;;;;;;;20.40;18.53;;;3.50;99.90;;;;;;4985974;28;20188;-73
2023/01/04 09:34:57;;;;;;;23.13;21.30;;;3.50;99.90;;;;;;4989597;28;20714;-73
2023/01/04 09:37:22;;;;;;;44.20;40.70;;;3.60;99.90;;;;;;5007776;28;20303;-73
2023/01/04 09:39:48;;;;;;;28.17;25.77;;;3.60;99.90;;;;;;4992801;28;20653;-73
2023/01/04 09:42:30;;;;;;;28.00;25.70;;;3.60;99.90;;;;;;4992595;28;20191;-74
2023/01/04 09:45:08;;;;;;;33.07;30.13;;;3.80;99.90;;;;;;4992863;28;20192;-73
2023/01/04 09:47:36;;;;;;;26.37;24.27;;;3.80;99.90;;;;;;4991965;28;20215;-73
2023/01/04 09:50:08;;;;;;;27.27;25.13;;;3.90;99.90;;;;;;4976978;28;20207;-72
2023/01/04 09:53:05;;;;;;;22.43;20.43;;;4.00;99.90;;;;;;4973078;28;20909;-72
2023/01/04 09:55:48;;;;;;;35.30;30.10;;;4.00;99.90;;;;;;4947024;28;20677;-73
2023/01/04 09:58:31;;;;;;;25.47;19.90;;;4.20;99.90;;;;;;4971313;28;20191;-73
2023/01/04 10:01:13;;;;;;;21.47;18.93;;;4.20;99.90;;;;;;4988003;28;20185;-73
2023/01/04 10:03:50;;;;;;;20.47;18.67;;;4.30;99.90;;;;;;4972785;28;20173;-74
2023/01/04 10:06:16;;;;;;;26.57;23.87;;;4.40;99.90;;;;;;4973161;28;20205;-74
2023/01/04 10:08:42;;;;;;;26.77;24.30;;;4.50;99.90;;;;;;4971003;28;20201;-73
2023/01/04 10:11:29;;;;;;;21.97;20.10;;;4.50;99.90;;;;;;4973246;28;20197;-75
2023/01/04 10:14:27;;;;;;;22.30;20.30;;;4.50;99.90;;;;;;4986044;28;20223;-74
2023/01/04 10:17:03;;;;;;;25.50;23.07;;;4.60;99.90;;;;;;4991852;28;20708;-72
2023/01/04 10:19:35;;;;;;;22.50;20.50;;;4.70;99.90;;;;;;4992607;28;20180;-73
2023/01/04 10:22:10;;;;;;;27.47;24.57;;;4.70;99.90;;;;;;4992658;28;20169;-73
2023/01/04 10:24:44;;;;;;;25.63;23.13;;;4.80;99.90;;;;;;4992675;28;20263;-75
2023/01/04 10:27:22;;;;;;;25.60;21.93;;;4.90;99.90;;;;;;4991458;28;20200;-74
2023/01/04 10:30:15;;;;;;;23.17;20.87;;;5.00;99.90;;;;;;4992375;28;20180;-73
2023/01/04 10:32:43;;;;;;;25.87;23.40;;;5.10;99.90;;;;;;4991335;28;20168;-74
2023/01/04 10:35:24;;;;;;;32.30;28.57;;;5.10;99.90;;;;;;4991105;28;20180;-73
2023/01/04 10:38:02;;;;;;;32.47;28.77;;;5.20;99.90;;;;;;4991321;28;20580;-74
2023/01/04 10:40:34;;;;;;;17.37;15.67;;;5.30;99.90;;;;;;4991795;28;20231;-74
2023/01/04 10:43:15;;;;;;;17.80;16.27;;;5.40;99.90;;;;;;4976272;28;20185;-75
2023/01/04 10:45:49;;;;;;;14.57;13.43;;;5.60;99.90;;;;;;4994520;28;20204;-75
2023/01/04 10:48:26;;;;;;;14.33;12.90;;;5.90;99.90;;;;;;4992503;28;20763;-73
2023/01/04 10:51:01;;;;;;;10.07;9.50;;;6.00;99.90;;;;;;4979776;28;20615;-74
2023/01/04 10:53:49;;;;;;;8.47;7.87;;;6.20;99.90;;;;;;4972827;28;20271;-74
2023/01/04 10:56:39;;;;;;;8.50;8.00;;;6.40;99.90;;;;;;4984665;28;20216;-73
2023/01/04 10:59:33;;;;;;;7.90;7.50;;;6.60;99.90;;;;;;4990846;28;20186;-73
2023/01/04 11:02:11;;;;;;;7.87;7.47;;;6.80;99.90;;;;;;4991579;28;20192;-73
2023/01/04 11:04:58;;;;;;;13.03;12.37;;;7.00;99.90;;;;;;4984541;28;20654;-73
2023/01/04 11:07:27;;;;;;;17.97;17.13;;;7.20;99.90;;;;;;4970249;28;20215;-73
2023/01/04 11:10:03;;;;;;;9.07;8.50;;;7.30;99.90;;;;;;4982155;28;20201;-75
2023/01/04 11:12:29;;;;;;;26.23;24.97;;;7.50;99.90;;;;;;4991250;28;20769;-74
2023/01/04 11:14:55;;;;;;;12.73;12.03;;;7.70;99.90;;;;;;4991610;28;20200;-74
2023/01/04 11:17:23;;;;;;;24.70;23.43;;;8.10;99.90;;;;;;5017906;23;20655;-75
2023/01/04 11:19:49;;;;;;;24.30;23.13;;;8.70;99.90;;;;;;4989039;28;20183;-74
2023/01/04 11:23:13;;;;;;;7.60;7.13;;;9.30;99.90;;;;;;4991505;28;20184;-73
2023/01/04 11:25:46;;;;;;;5.83;5.63;;;9.80;99.90;;;;;;4972765;28;20272;-72
2023/01/04 11:28:30;;;;;;;426.40;167.03;;;9.90;99.90;;;;;;4988437;28;20219;-78
2023/01/04 11:31:30;;;;;;;1183.73;526.03;;;9.80;99.90;;;;;;4991292;28;20267;-75
2023/01/04 11:34:05;;;;;;;1999.90;659.00;;;10.00;99.90;;;;;;4991449;28;20271;-75
2023/01/04 11:36:33;;;;;;;67.27;37.57;;;10.00;99.90;;;;;;4995692;28;20203;-75
2023/01/04 11:38:59;;;;;;;18.53;12.57;;;10.10;99.90;;;;;;5008660;28;20180;-75
2023/01/04 11:41:25;;;;;;;31.83;17.27;;;10.00;99.90;;;;;;5010317;28;20333;-76
2023/01/04 11:44:05;;;;;;;7.43;6.83;;;10.10;99.90;;;;;;5010715;28;20608;-77
2023/01/04 11:46:33;;;;;;;5.47;4.97;;;10.00;99.90;;;;;;5002654;28;20219;-74
2023/01/04 11:48:59;;;;;;;4.20;3.80;;;10.00;99.90;;;;;;5008512;28;20222;-74
2023/01/04 11:51:28;;;;;;;4.07;3.80;;;10.10;99.90;;;;;;4989399;28;20268;-74
2023/01/04 11:54:03;;;;;;;3.97;3.87;;;10.10;99.90;;;;;;4990371;28;20547;-73
2023/01/04 11:56:31;;;;;;;4.83;4.63;;;10.10;99.90;;;;;;4993848;28;20724;-73
2023/01/04 11:59:07;;;;;;;5.00;4.70;;;9.90;99.90;;;;;;4985926;28;20192;-73
2023/01/04 12:01:36;;;;;;;6.43;6.13;;;9.90;99.90;;;;;;4998876;28;20183;-72
2023/01/04 12:04:08;;;;;;;6.67;6.37;;;9.90;99.90;;;;;;5000958;28;20689;-75
2023/01/04 12:07:00;;;;;;;4.97;4.77;;;9.70;99.90;;;;;;5002619;28;20255;-73
2023/01/04 12:09:29;;;;;;;4.33;4.13;;;9.70;99.90;;;;;;5008810;28;20318;-73
2023/01/04 12:11:57;;;;;;;6.27;5.60;;;9.70;99.90;;;;;;5010267;28;20273;-74
2023/01/04 12:14:31;;;;;;;7.97;7.47;;;9.70;99.90;;;;;;5009634;28;20195;-73
2023/01/04 12:17:10;;;;;;;7.57;7.27;;;9.70;99.90;;;;;;5009660;28;20310;-73
2023/01/04 12:19:38;;;;;;;7.53;7.10;;;9.60;99.90;;;;;;5005328;28;20315;-73
2023/01/04 12:22:31;;;;;;;6.17;5.90;;;9.60;99.90;;;;;;4989800;28;20180;-73
2023/01/04 12:24:58;;;;;;;7.93;7.63;;;9.60;99.90;;;;;;4994298;28;20195;-72
2023/01/04 12:27:24;;;;;;;8.30;7.90;;;9.60;99.90;;;;;;4993471;28;20582;-73
2023/01/04 12:29:56;;;;;;;7.53;7.23;;;9.50;99.90;;;;;;4991458;28;20187;-72
2023/01/04 12:32:22;;;;;;;6.53;6.23;;;9.60;99.90;;;;;;5008701;28;20262;-73
2023/01/04 12:34:48;;;;;;;5.40;5.00;;;9.70;99.90;;;;;;5008249;28;20223;-69
2023/01/04 12:37:47;;;;;;;6.87;6.63;;;9.70;99.90;;;;;;5011638;28;20210;-73
2023/01/04 12:40:44;;;;;;;10.13;9.53;;;9.80;99.90;;;;;;5013042;28;20290;-73
2023/01/04 12:43:17;;;;;;;10.30;9.80;;;9.80;99.90;;;;;;5013666;28;20184;-72
2023/01/04 12:45:44;;;;;;;9.90;9.40;;;9.70;99.90;;;;;;5012259;28;20266;-73
2023/01/04 12:51:21;;;;;;;13.90;13.20;;;9.90;99.90;;;;;;5014156;28;20186;-72
2023/01/04 12:53:55;;;;;;;13.30;12.70;;;9.90;99.90;;;;;;5014529;28;20560;-72
2023/01/04 12:56:21;;;;;;;11.73;11.13;;;9.90;99.90;;;;;;5014997;28;20627;-72
2023/01/04 12:59:10;;;;;;;11.00;10.33;;;10.00;99.90;;;;;;5018825;28;20230;-72
2023/01/04 13:01:37;;;;;;;10.23;9.83;;;10.00;99.90;;;;;;5009013;28;20220;-73
2023/01/04 13:04:38;;;;;;;8.73;8.33;;;10.10;99.90;;;;;;4995922;28;20191;-72
2023/01/04 13:07:13;;;;;;;7.67;7.07;;;10.10;99.90;;;;;;4997330;28;20693;-72
2023/01/04 13:09:44;;;;;;;7.37;6.97;;;10.10;99.90;;;;;;4997045;28;20227;-72
2023/01/04 13:12:14;;;;;;;9.70;9.10;;;10.10;99.90;;;;;;4994746;28;20206;-73
2023/01/04 13:14:47;;;;;;;10.13;9.43;;;10.10;99.90;;;;;;5005294;28;20199;-73
2023/01/04 13:17:15;;;;;;;9.37;8.97;;;10.20;99.90;;;;;;5011870;28;20691;-72
2023/01/04 13:19:42;;;;;;;12.70;12.00;;;10.20;99.90;;;;;;5012440;28;20207;-74
2023/01/04 13:22:19;;;;;;;19.03;18.17;;;10.30;99.90;;;;;;5012854;28;20183;-74
2023/01/04 13:24:47;;;;;;;24.67;23.50;;;10.30;99.90;;;;;;5013930;28;20271;-73
2023/01/04 13:27:18;;;;;;;21.70;20.67;;;10.30;99.90;;;;;;5013258;28;20588;-74
2023/01/04 13:29:45;;;;;;;25.03;23.83;;;10.40;99.90;;;;;;5012347;28;20182;-74
2023/01/04 13:32:26;;;;;;;29.17;27.77;;;10.50;99.90;;;;;;5014015;28;20183;-74
2023/01/04 13:34:58;;;;;;;26.00;24.47;;;10.50;99.90;;;;;;5013449;28;20187;-74
2023/01/04 13:37:41;;;;;;;30.47;28.77;;;10.50;99.90;;;;;;5011567;28;20199;-73